ACA22 CYVR-KSEA
Flight info
| Callsign | ACA22 |
|---|---|
| Flight time | 0h 24m |
| Altitude | 17000 |
| Route | ROESH MARNR8 |
| Aircraft | B77L/H-SDE1E2E3FGHIJ2J3J4J5M1RWXY/LB1D1 |
Departure
| Time | 2026-05-05 03:01 |
|---|---|
| Airport | Vancouver International Airport (CYVR) |
Arrival
| Time | 2026-05-05 03:26 |
|---|---|
| Airport | Seattle–Tacoma International Airport (KSEA) |
| Time | Latitude | Longitude | Altitude | Speed | Heading |
|---|---|---|---|---|---|
| 2026-05-05 02:37 | 49.19822 | -123.18288 | 23 ft | 0 kts | 11° |
| 2026-05-05 02:50 | 49.19820 | -123.18289 | 22 ft | 2 kts | 11° |
| 2026-05-05 02:50 | 49.19795 | -123.18294 | 26 ft | 4 kts | 359° |
| 2026-05-05 02:51 | 49.19769 | -123.18289 | 25 ft | 4 kts | 336° |
| 2026-05-05 02:51 | 49.19750 | -123.18266 | 26 ft | 4 kts | 287° |
| 2026-05-05 02:51 | 49.19749 | -123.18258 | 26 ft | 0 kts | 279° |
| 2026-05-05 02:55 | 49.19754 | -123.18306 | 23 ft | 12 kts | 282° |
| 2026-05-05 02:56 | 49.19800 | -123.18505 | 25 ft | 28 kts | 275° |
| 2026-05-05 02:56 | 49.19675 | -123.18675 | 23 ft | 31 kts | 202° |
| 2026-05-05 02:56 | 49.19435 | -123.18712 | 25 ft | 34 kts | 171° |
| 2026-05-05 02:56 | 49.19211 | -123.18720 | 25 ft | 27 kts | 173° |
| 2026-05-05 02:57 | 49.19082 | -123.18596 | 25 ft | 22 kts | 146° |
| 2026-05-05 02:57 | 49.18966 | -123.18443 | 23 ft | 22 kts | 129° |
| 2026-05-05 02:57 | 49.18930 | -123.18220 | 25 ft | 22 kts | 99° |
| 2026-05-05 02:57 | 49.18903 | -123.17988 | 24 ft | 22 kts | 99° |
| 2026-05-05 02:58 | 49.18876 | -123.17753 | 26 ft | 22 kts | 101° |
| 2026-05-05 02:58 | 49.18850 | -123.17523 | 27 ft | 22 kts | 98° |
| 2026-05-05 02:58 | 49.18823 | -123.17291 | 23 ft | 22 kts | 99° |
| 2026-05-05 02:58 | 49.18796 | -123.17059 | 25 ft | 22 kts | 100° |
| 2026-05-05 02:59 | 49.18769 | -123.16827 | 24 ft | 22 kts | 100° |
| 2026-05-05 02:59 | 49.18745 | -123.16595 | 26 ft | 22 kts | 100° |
| 2026-05-05 02:59 | 49.18719 | -123.16366 | 27 ft | 22 kts | 106° |
| 2026-05-05 02:59 | 49.18632 | -123.16191 | 26 ft | 14 kts | 117° |
| 2026-05-05 03:00 | 49.18602 | -123.16053 | 29 ft | 15 kts | 147° |
| 2026-05-05 03:00 | 49.18504 | -123.16069 | 31 ft | 15 kts | 215° |
| 2026-05-05 03:00 | 49.18484 | -123.16173 | 26 ft | 3 kts | 280° |
| 2026-05-05 03:00 | 49.18491 | -123.16234 | 28 ft | 21 kts | 280° |
| 2026-05-05 03:01 | 49.18595 | -123.17152 | 27 ft | 154 kts | 282° |
| 2026-05-05 03:01 | 49.18848 | -123.19149 | 458 ft | 202 kts | 278° |
| 2026-05-05 03:01 | 49.19081 | -123.21323 | 1026 ft | 211 kts | 274° |
| 2026-05-05 03:01 | 49.18951 | -123.23553 | 1706 ft | 211 kts | 242° |
| 2026-05-05 03:02 | 49.17890 | -123.25179 | 2477 ft | 236 kts | 206° |
| 2026-05-05 03:02 | 49.16166 | -123.25504 | 3199 ft | 265 kts | 169° |
| 2026-05-05 03:02 | 49.14376 | -123.24626 | 4212 ft | 277 kts | 161° |
| 2026-05-05 03:02 | 49.12559 | -123.23630 | 5444 ft | 281 kts | 162° |
| 2026-05-05 03:03 | 49.10709 | -123.22661 | 6809 ft | 282 kts | 162° |
| 2026-05-05 03:03 | 49.08834 | -123.21724 | 8021 ft | 286 kts | 162° |
| 2026-05-05 03:03 | 49.06911 | -123.20802 | 9244 ft | 292 kts | 161° |
| 2026-05-05 03:03 | 49.04942 | -123.19889 | 10345 ft | 300 kts | 162° |
| 2026-05-05 03:04 | 49.02860 | -123.18944 | 10938 ft | 328 kts | 162° |
| 2026-05-05 03:04 | 49.00539 | -123.17910 | 11221 ft | 364 kts | 162° |
| 2026-05-05 03:04 | 48.98037 | -123.16814 | 12017 ft | 380 kts | 163° |
| 2026-05-05 03:04 | 48.95455 | -123.15696 | 13044 ft | 391 kts | 163° |
| 2026-05-05 03:05 | 48.92812 | -123.14561 | 14094 ft | 399 kts | 163° |
| 2026-05-05 03:05 | 48.90154 | -123.13423 | 15085 ft | 405 kts | 163° |
| 2026-05-05 03:05 | 48.87381 | -123.12237 | 16098 ft | 413 kts | 163° |
| 2026-05-05 03:05 | 48.84618 | -123.11057 | 16836 ft | 420 kts | 163° |
| 2026-05-05 03:06 | 48.81792 | -123.09850 | 16963 ft | 426 kts | 163° |
| 2026-05-05 03:06 | 48.78946 | -123.08636 | 16948 ft | 423 kts | 163° |
| 2026-05-05 03:06 | 48.76120 | -123.07433 | 16942 ft | 420 kts | 163° |
| 2026-05-05 03:06 | 48.73310 | -123.06237 | 16940 ft | 420 kts | 163° |
| 2026-05-05 03:07 | 48.70483 | -123.05035 | 16943 ft | 420 kts | 163° |
| 2026-05-05 03:07 | 48.67663 | -123.03836 | 16946 ft | 421 kts | 163° |
| 2026-05-05 03:07 | 48.64838 | -123.02638 | 16940 ft | 421 kts | 163° |
| 2026-05-05 03:07 | 48.62003 | -123.01480 | 16950 ft | 422 kts | 165° |
| 2026-05-05 03:08 | 48.59171 | -123.00563 | 16953 ft | 423 kts | 168° |
| 2026-05-05 03:08 | 48.56278 | -122.99757 | 16971 ft | 423 kts | 169° |
| 2026-05-05 03:08 | 48.53374 | -122.98983 | 16969 ft | 424 kts | 169° |
| 2026-05-05 03:08 | 48.50464 | -122.98200 | 16977 ft | 424 kts | 169° |
| 2026-05-05 03:09 | 48.47555 | -122.97400 | 16966 ft | 424 kts | 168° |
| 2026-05-05 03:09 | 48.44654 | -122.96587 | 16978 ft | 424 kts | 168° |
| 2026-05-05 03:09 | 48.41749 | -122.95762 | 16953 ft | 424 kts | 168° |
| 2026-05-05 03:09 | 48.38847 | -122.94933 | 16951 ft | 424 kts | 168° |
| 2026-05-05 03:10 | 48.35948 | -122.94103 | 16948 ft | 424 kts | 168° |
| 2026-05-05 03:10 | 48.33061 | -122.93277 | 16754 ft | 420 kts | 168° |
| 2026-05-05 03:10 | 48.30205 | -122.92461 | 16336 ft | 415 kts | 168° |
| 2026-05-05 03:10 | 48.27416 | -122.91666 | 16217 ft | 399 kts | 168° |
| 2026-05-05 03:11 | 48.24772 | -122.90914 | 16081 ft | 384 kts | 168° |
| 2026-05-05 03:11 | 48.22177 | -122.90176 | 15875 ft | 373 kts | 168° |
| 2026-05-05 03:11 | 48.19651 | -122.89458 | 15560 ft | 367 kts | 168° |
| 2026-05-05 03:11 | 48.17149 | -122.88746 | 15134 ft | 364 kts | 168° |
| 2026-05-05 03:12 | 48.14663 | -122.88041 | 14673 ft | 363 kts | 168° |
| 2026-05-05 03:12 | 48.12188 | -122.87338 | 14238 ft | 360 kts | 168° |
| 2026-05-05 03:12 | 48.09730 | -122.86642 | 13838 ft | 358 kts | 168° |
| 2026-05-05 03:12 | 48.07291 | -122.85953 | 13425 ft | 355 kts | 168° |
| 2026-05-05 03:13 | 48.04951 | -122.85003 | 12827 ft | 347 kts | 152° |
| 2026-05-05 03:13 | 48.03033 | -122.82876 | 12282 ft | 342 kts | 130° |
| 2026-05-05 03:13 | 48.01661 | -122.80035 | 11989 ft | 334 kts | 119° |
| 2026-05-05 03:13 | 48.00424 | -122.77075 | 11961 ft | 338 kts | 120° |
| 2026-05-05 03:14 | 47.99162 | -122.74104 | 11960 ft | 338 kts | 120° |
| 2026-05-05 03:14 | 47.98016 | -122.71086 | 11950 ft | 331 kts | 111° |
| 2026-05-05 03:14 | 47.97210 | -122.67879 | 11960 ft | 329 kts | 105° |
| 2026-05-05 03:14 | 47.96532 | -122.64770 | 11750 ft | 306 kts | 105° |
| 2026-05-05 03:15 | 47.95891 | -122.61860 | 11364 ft | 286 kts | 105° |
| 2026-05-05 03:15 | 47.95258 | -122.59087 | 10945 ft | 281 kts | 106° |
| 2026-05-05 03:15 | 47.94832 | -122.57268 | 10776 ft | 277 kts | 107° |
| 2026-05-05 03:15 | 47.93975 | -122.53674 | 10334 ft | 273 kts | 108° |
| 2026-05-05 03:16 | 47.93560 | -122.51951 | 10093 ft | 260 kts | 108° |
| 2026-05-05 03:16 | 47.92958 | -122.49465 | 9601 ft | 248 kts | 109° |
| 2026-05-05 03:16 | 47.92062 | -122.47321 | 8934 ft | 250 kts | 140° |
| 2026-05-05 03:16 | 47.90498 | -122.46219 | 8521 ft | 246 kts | 163° |
| 2026-05-05 03:17 | 47.88850 | -122.45499 | 8052 ft | 248 kts | 162° |
| 2026-05-05 03:17 | 47.87215 | -122.44768 | 7634 ft | 249 kts | 163° |
| 2026-05-05 03:17 | 47.85557 | -122.44030 | 7251 ft | 247 kts | 163° |
| 2026-05-05 03:17 | 47.83910 | -122.43300 | 6865 ft | 246 kts | 163° |
| 2026-05-05 03:18 | 47.82271 | -122.42574 | 6479 ft | 246 kts | 163° |
| 2026-05-05 03:18 | 47.80629 | -122.41848 | 6067 ft | 245 kts | 163° |
| 2026-05-05 03:18 | 47.78997 | -122.41127 | 5703 ft | 243 kts | 163° |
| 2026-05-05 03:18 | 47.77380 | -122.40413 | 5334 ft | 241 kts | 163° |
| 2026-05-05 03:19 | 47.74213 | -122.38824 | 4617 ft | 238 kts | 159° |
| 2026-05-05 03:19 | 47.72678 | -122.38001 | 4265 ft | 236 kts | 159° |
| 2026-05-05 03:19 | 47.71154 | -122.37190 | 3951 ft | 227 kts | 159° |
| 2026-05-05 03:20 | 47.69677 | -122.36406 | 3517 ft | 223 kts | 160° |
| 2026-05-05 03:20 | 47.68233 | -122.35642 | 3050 ft | 213 kts | 160° |
| 2026-05-05 03:20 | 47.66893 | -122.34936 | 2402 ft | 197 kts | 160° |
| 2026-05-05 03:20 | 47.65599 | -122.34255 | 2132 ft | 200 kts | 160° |
| 2026-05-05 03:21 | 47.64296 | -122.33570 | 1954 ft | 197 kts | 160° |
| 2026-05-05 03:21 | 47.63020 | -122.32901 | 1882 ft | 194 kts | 161° |
| 2026-05-05 03:21 | 47.61770 | -122.32246 | 1896 ft | 185 kts | 161° |
| 2026-05-05 03:21 | 47.60603 | -122.31685 | 1867 ft | 167 kts | 170° |
| 2026-05-05 03:22 | 47.59471 | -122.31614 | 1879 ft | 165 kts | 181° |
| 2026-05-05 03:22 | 47.58344 | -122.31637 | 1862 ft | 153 kts | 181° |
| 2026-05-05 03:22 | 47.57329 | -122.31658 | 1848 ft | 141 kts | 181° |
| 2026-05-05 03:22 | 47.56376 | -122.31676 | 1866 ft | 137 kts | 181° |
| 2026-05-05 03:23 | 47.55410 | -122.31708 | 1868 ft | 138 kts | 181° |
| 2026-05-05 03:23 | 47.54454 | -122.31724 | 1872 ft | 137 kts | 180° |
| 2026-05-05 03:23 | 47.53513 | -122.31715 | 1835 ft | 135 kts | 181° |
| 2026-05-05 03:23 | 47.52573 | -122.31674 | 1647 ft | 133 kts | 181° |
| 2026-05-05 03:24 | 47.51635 | -122.31663 | 1430 ft | 135 kts | 183° |
| 2026-05-05 03:24 | 47.50705 | -122.31675 | 1282 ft | 135 kts | 183° |
| 2026-05-05 03:24 | 47.49757 | -122.31717 | 1076 ft | 138 kts | 184° |
| 2026-05-05 03:24 | 47.48784 | -122.31760 | 927 ft | 143 kts | 184° |
| 2026-05-05 03:25 | 47.47814 | -122.31759 | 737 ft | 136 kts | 182° |
| 2026-05-05 03:25 | 47.46893 | -122.31757 | 540 ft | 128 kts | 184° |
| 2026-05-05 03:25 | 47.46013 | -122.31782 | 405 ft | 123 kts | 183° |
| 2026-05-05 03:25 | 47.45246 | -122.31801 | 397 ft | 90 kts | 181° |
| 2026-05-05 03:26 | 47.44729 | -122.31789 | 397 ft | 45 kts | 172° |
| 2026-05-05 03:26 | 47.44499 | -122.31669 | 395 ft | 29 kts | 150° |
| 2026-05-05 03:26 | 47.44340 | -122.31534 | 396 ft | 21 kts | 150° |
| 2026-05-05 03:26 | 47.44274 | -122.31414 | 396 ft | 2 kts | 94° |
| 2026-05-05 03:27 | 47.44272 | -122.31402 | 394 ft | 0 kts | 95° |
| 2026-05-05 03:27 | 47.44272 | -122.31401 | 394 ft | 0 kts | 94° |
| 2026-05-05 03:27 | 47.44270 | -122.31393 | 394 ft | 1 kts | 113° |
| 2026-05-05 03:27 | 47.44260 | -122.31386 | 394 ft | 2 kts | 153° |
| 2026-05-05 03:28 | 47.44227 | -122.31372 | 396 ft | 11 kts | 167° |
| 2026-05-05 03:28 | 47.44094 | -122.31366 | 395 ft | 23 kts | 175° |
| 2026-05-05 03:28 | 47.43937 | -122.31365 | 396 ft | 23 kts | 180° |
| 2026-05-05 03:28 | 47.43820 | -122.31298 | 397 ft | 15 kts | 113° |
| 2026-05-05 03:29 | 47.43808 | -122.31143 | 398 ft | 16 kts | 89° |
| 2026-05-05 03:29 | 47.43809 | -122.30977 | 398 ft | 17 kts | 90° |
| 2026-05-05 03:29 | 47.43805 | -122.30808 | 397 ft | 17 kts | 92° |
| 2026-05-05 03:29 | 47.43831 | -122.30651 | 398 ft | 17 kts | 37° |
| 2026-05-05 03:30 | 47.43947 | -122.30636 | 395 ft | 17 kts | 8° |
| 2026-05-05 03:30 | 47.43990 | -122.30490 | 394 ft | 18 kts | 93° |
| 2026-05-05 03:30 | 47.43994 | -122.30312 | 396 ft | 18 kts | 68° |
| 2026-05-05 03:30 | 47.44097 | -122.30243 | 397 ft | 16 kts | 352° |
| 2026-05-05 03:31 | 47.44168 | -122.30209 | 394 ft | 9 kts | 38° |
| 2026-05-05 03:31 | 47.44179 | -122.30196 | 394 ft | 0 kts | 39° |